createdAt,value
2022-11-24T00:03:24.102Z,99163
2022-11-24T00:08:24.222Z,99163
2022-11-24T00:13:23.894Z,99163
2022-11-24T00:18:24.197Z,99171
2022-11-24T00:23:24.149Z,99169
2022-11-24T00:28:24.170Z,99175
2022-11-24T00:33:23.909Z,99184
2022-11-24T00:38:24.007Z,99184
2022-11-24T00:43:23.914Z,99193
2022-11-24T00:48:24.109Z,99197
2022-11-24T00:53:24.235Z,99204
2022-11-24T00:58:23.905Z,99204
2022-11-24T01:08:24.038Z,99206
2022-11-24T01:13:24.175Z,99206
2022-11-24T01:18:24.027Z,99209
2022-11-24T01:23:23.943Z,99210
2022-11-24T01:28:23.987Z,99209
2022-11-24T01:38:24.252Z,99216
2022-11-24T01:43:24.252Z,99220
2022-11-24T01:48:27.284Z,99219
2022-11-24T01:53:24.066Z,99224
2022-11-24T02:03:24.037Z,99232
2022-11-24T02:08:23.933Z,99232
2022-11-24T02:13:23.958Z,99226
2022-11-24T02:23:23.942Z,99219
2022-11-24T02:28:23.934Z,99229
2022-11-24T02:33:24.257Z,99229
2022-11-24T02:43:24.233Z,99232
2022-11-24T02:48:23.995Z,99232
2022-11-24T02:53:24.190Z,99219
2022-11-24T02:58:24.026Z,99226
2022-11-24T03:03:23.967Z,99231
2022-11-24T03:08:24.298Z,99229
2022-11-24T03:13:24.128Z,99227
2022-11-24T03:18:24.269Z,99239
2022-11-24T03:23:24.001Z,99239
2022-11-24T03:28:24.250Z,99241
2022-11-24T03:33:24.072Z,99241
2022-11-24T03:38:24.202Z,99245
2022-11-24T03:43:23.957Z,99251
2022-11-24T03:48:24.190Z,99251
2022-11-24T03:53:23.982Z,99261
2022-11-24T03:58:24.164Z,99264
2022-11-24T04:03:23.985Z,99264
2022-11-24T04:08:24.117Z,99271
2022-11-24T04:13:24.280Z,99271
2022-11-24T04:18:24.058Z,99268
2022-11-24T04:23:23.993Z,99291
2022-11-24T04:28:24.069Z,99293
2022-11-24T04:33:23.968Z,99293
2022-11-24T04:39:23.991Z,99296
2022-11-24T04:43:24.035Z,99291
2022-11-24T04:48:24.326Z,99308
2022-11-24T04:53:24.156Z,99310
2022-11-24T04:58:24.280Z,99310
2022-11-24T05:03:23.988Z,99329
2022-11-24T05:08:23.995Z,99329
2022-11-24T05:13:23.988Z,99344
2022-11-24T05:18:24.021Z,99352
2022-11-24T05:23:24.030Z,99355
2022-11-24T05:28:24.021Z,99355
2022-11-24T05:33:24.332Z,99359
2022-11-24T05:38:23.990Z,99359
2022-11-24T05:43:24.261Z,99373
2022-11-24T05:48:24.063Z,99380
2022-11-24T05:53:24.267Z,99392
2022-11-24T06:03:24.313Z,99405
2022-11-24T06:08:28.168Z,99401
2022-11-24T06:13:24.218Z,99405
2022-11-24T06:18:24.040Z,99405
2022-11-24T06:23:24.142Z,99412
2022-11-24T06:28:24.007Z,99421
2022-11-24T06:33:24.160Z,99422
2022-11-24T06:38:24.471Z,99428
2022-11-24T06:43:24.080Z,99439
2022-11-24T06:48:24.124Z,99439
2022-11-24T06:53:24.057Z,99440
2022-11-24T06:58:24.208Z,99440
2022-11-24T07:03:24.689Z,99443
2022-11-24T07:08:24.142Z,99456
2022-11-24T07:13:24.047Z,99468
2022-11-24T07:18:24.143Z,99477
2022-11-24T07:23:24.301Z,99486
2022-11-24T07:28:24.147Z,99486
2022-11-24T07:33:24.036Z,99486
2022-11-24T07:38:24.094Z,99493
2022-11-24T07:43:24.060Z,99493
2022-11-24T07:53:24.086Z,99494
2022-11-24T07:58:27.595Z,99498
2022-11-24T08:03:24.112Z,99500
2022-11-24T08:08:24.318Z,99500
2022-11-24T08:13:24.061Z,99513
2022-11-24T08:18:24.275Z,99511
2022-11-24T08:23:24.129Z,99518
2022-11-24T08:28:24.085Z,99524
2022-11-24T08:33:24.098Z,99524
2022-11-24T08:38:24.488Z,99527
2022-11-24T08:43:24.338Z,99528
2022-11-24T08:48:24.184Z,99536
2022-11-24T08:53:24.361Z,99540
2022-11-24T08:58:24.180Z,99541
2022-11-24T09:03:24.309Z,99539
2022-11-24T09:08:24.112Z,99539
2022-11-24T09:13:24.290Z,99539
2022-11-24T09:18:28.883Z,99542
2022-11-24T09:23:24.264Z,99549
2022-11-24T09:28:24.105Z,99554
2022-11-24T09:33:24.245Z,99554
2022-11-24T09:38:24.112Z,99551
2022-11-24T09:43:24.208Z,99565
2022-11-24T09:48:24.103Z,99574
2022-11-24T09:53:24.176Z,99566
2022-11-24T09:58:24.135Z,99567
2022-11-24T10:03:24.437Z,99569
2022-11-24T10:08:24.247Z,99569
2022-11-24T10:13:24.392Z,99567
2022-11-24T10:18:24.130Z,99571
2022-11-24T10:23:24.377Z,99574
2022-11-24T10:28:24.197Z,99576
2022-11-24T10:33:30.142Z,99576
2022-11-24T10:43:24.144Z,99588
2022-11-24T10:53:24.260Z,99596
2022-11-24T10:58:24.254Z,99596
2022-11-24T11:03:24.175Z,99608
2022-11-24T11:08:24.391Z,99608
2022-11-24T11:13:24.247Z,99608
2022-11-24T11:18:24.359Z,99614
2022-11-24T11:23:24.165Z,99614
2022-11-24T11:28:24.337Z,99629
2022-11-24T11:38:24.325Z,99635
2022-11-24T11:43:24.181Z,99634
2022-11-24T11:48:24.260Z,99640
2022-11-24T11:53:24.192Z,99629
2022-11-24T11:58:24.280Z,99629
2022-11-24T12:03:24.344Z,99633
2022-11-24T12:08:24.336Z,99640
2022-11-24T12:13:24.384Z,99640
2022-11-24T12:18:48.986Z,99638
2022-11-24T12:23:24.152Z,99637
2022-11-24T12:28:24.731Z,99638
2022-11-24T12:33:24.321Z,99648
2022-11-24T12:38:24.534Z,99643
2022-11-24T12:43:24.180Z,99649
2022-11-24T12:48:24.238Z,99649
2022-11-24T12:53:24.256Z,99653
2022-11-24T12:58:24.368Z,99652
2022-11-24T13:03:24.167Z,99654
2022-11-24T13:08:24.207Z,99658
2022-11-24T13:13:24.206Z,99664
2022-11-24T13:18:24.262Z,99675
2022-11-24T13:23:24.388Z,99675
2022-11-24T13:28:53.931Z,99681
2022-11-24T13:33:27.074Z,99681
2022-11-24T13:38:24.249Z,99689
2022-11-24T13:43:24.531Z,99688
2022-11-24T13:48:24.261Z,99698
2022-11-24T13:53:24.358Z,99707
2022-11-24T13:58:24.513Z,99707
2022-11-24T14:03:24.330Z,99712
2022-11-24T14:08:24.470Z,99721
2022-11-24T14:13:24.232Z,99724
2022-11-24T14:18:24.223Z,99719
2022-11-24T14:23:24.306Z,99726
2022-11-24T14:28:24.497Z,99726
2022-11-24T14:33:24.223Z,99730
2022-11-24T14:38:24.238Z,99736
2022-11-24T14:43:24.558Z,99736
2022-11-24T14:48:24.375Z,99743
2022-11-24T14:58:24.249Z,99758
2022-11-24T15:03:24.510Z,99758
2022-11-24T15:08:24.275Z,99759
2022-11-24T15:13:24.457Z,99777
2022-11-24T15:18:24.230Z,99777
2022-11-24T15:23:24.231Z,99786
2022-11-24T15:28:24.272Z,99786
2022-11-24T15:33:24.234Z,99783
2022-11-24T15:38:24.639Z,99780
2022-11-24T15:43:24.346Z,99780
2022-11-24T15:48:24.613Z,99787
2022-11-24T15:53:24.316Z,99785
2022-11-24T15:58:24.484Z,99796
2022-11-24T16:03:46.171Z,99795
2022-11-24T16:08:24.445Z,99795
2022-11-24T16:13:24.623Z,99805
2022-11-24T16:18:24.621Z,99805
2022-11-24T16:23:24.285Z,99806
2022-11-24T16:28:24.387Z,99810
2022-11-24T16:33:24.506Z,99817
2022-11-24T16:38:24.334Z,99826
2022-11-24T16:43:24.352Z,99826
2022-11-24T16:48:24.298Z,99834
2022-11-24T16:53:24.300Z,99848
2022-11-24T16:58:24.599Z,99848
2022-11-24T17:03:24.270Z,99862
2022-11-24T17:08:25.928Z,99862
2022-11-24T17:13:24.428Z,99868
2022-11-24T17:18:25.533Z,99868
2022-11-24T17:23:24.349Z,99884
2022-11-24T17:28:24.643Z,99879
2022-11-24T17:33:24.462Z,99878
2022-11-24T17:38:24.461Z,99878
2022-11-24T17:43:24.292Z,99890
2022-11-24T17:48:24.458Z,99892
2022-11-24T17:53:24.503Z,99898
2022-11-24T17:58:24.400Z,99898
2022-11-24T18:03:24.497Z,99910
2022-11-24T18:08:24.477Z,99910
2022-11-24T18:13:54.445Z,99936
2022-11-24T18:18:24.580Z,99936
2022-11-24T18:23:24.658Z,99937
2022-11-24T18:28:24.628Z,99951
2022-11-24T18:33:24.757Z,99951
2022-11-24T18:38:24.878Z,99960
2022-11-24T18:43:24.654Z,99960
2022-11-24T18:48:24.562Z,99978
2022-11-24T18:53:24.543Z,99979
2022-11-24T18:58:24.753Z,99979
2022-11-24T19:03:24.649Z,99991
2022-11-24T19:08:24.507Z,99992
2022-11-24T19:13:24.957Z,99994
2022-11-24T19:18:24.750Z,99994
2022-11-24T19:23:24.881Z,100007
2022-11-24T19:28:24.465Z,100007
2022-11-24T19:33:24.913Z,100018
2022-11-24T19:38:29.686Z,100024
2022-11-24T19:43:25.156Z,100020
2022-11-24T19:48:24.697Z,100030
2022-11-24T19:53:24.803Z,100033
2022-11-24T19:58:24.702Z,100033
2022-11-24T20:03:25.447Z,100046
2022-11-24T20:08:24.866Z,100047
2022-11-24T20:13:24.632Z,100060
2022-11-24T20:18:24.624Z,100068
2022-11-24T20:23:24.739Z,100068
2022-11-24T20:28:24.685Z,100082
2022-11-24T20:33:24.706Z,100082
2022-11-24T20:38:24.785Z,100099
2022-11-24T20:43:24.369Z,100095
2022-11-24T20:48:24.771Z,100102
2022-11-24T20:53:24.603Z,100107
2022-11-24T20:58:24.670Z,100111
2022-11-24T21:03:24.579Z,100119
2022-11-24T21:08:24.708Z,100115
2022-11-24T21:13:24.685Z,100115
2022-11-24T21:18:24.389Z,100125
2022-11-24T21:23:24.673Z,100125
2022-11-24T21:28:24.740Z,100129
2022-11-24T21:33:24.517Z,100136
2022-11-24T21:38:24.382Z,100136
2022-11-24T21:43:24.532Z,100136
2022-11-24T21:48:24.669Z,100143
2022-11-24T21:53:24.478Z,100143
2022-11-24T21:58:24.635Z,100139
2022-11-24T22:03:24.417Z,100142
2022-11-24T22:08:24.600Z,100146
2022-11-24T22:13:24.750Z,100146
2022-11-24T22:18:24.535Z,100161
2022-11-24T22:23:24.726Z,100160
2022-11-24T22:28:24.411Z,100160
2022-11-24T22:33:24.786Z,100170
2022-11-24T22:38:24.421Z,100186
2022-11-24T22:43:24.428Z,100183
2022-11-24T22:48:24.442Z,100185
2022-11-24T22:53:24.422Z,100185
2022-11-24T22:58:24.463Z,100187
2022-11-24T23:03:24.499Z,100192
2022-11-24T23:08:24.730Z,100201
2022-11-24T23:13:24.405Z,100206
2022-11-24T23:18:24.708Z,100212
2022-11-24T23:23:24.501Z,100212
2022-11-24T23:33:24.766Z,100211
2022-11-24T23:38:24.650Z,100217
2022-11-24T23:43:24.780Z,100225
2022-11-24T23:48:24.572Z,100219
2022-11-24T23:53:24.451Z,100213
2022-11-24T23:58:24.565Z,100213
